Beatriz B — 5BUB4 — position and weather

sailwx.info

Track history (hours):
 
Tides and Currents Weather Stations Pressure Air Temp Water Temp Dewpoint Dewpoint Depression Visibility Wind Speed Wind Dir Waves Ship Positions

Beatriz B

Last reported at 2017-Sep-21 04:56 UTC. Time now 2017-Sep-21 05:30 UTC.
Position N 28°09' W 015°25'.

Length 158 m; draft 9 m.

Type: Cargo ship. MMSI: 209056000.

Date/timePositionNaut miles runAvg speedWind from/ knotsBaromVisibWave heightAir tempDewpointWater temp
2017-Sep-21 04:56N 28°09' W 015°25'0 0.0
2017-Sep-21 04:29N 28°09' W 015°25'0 0.0
2017-Sep-21 03:59N 28°09' W 015°25'0 0.0
2017-Sep-21 03:29N 28°09' W 015°25'0 0.0
2017-Sep-21 02:59N 28°09' W 015°25'0 0.0
2017-Sep-21 02:29N 28°09' W 015°25'0 0.0
2017-Sep-21 01:59N 28°09' W 015°25'0 0.0
2017-Sep-21 01:29N 28°09' W 015°25'0 0.2
2017-Sep-21 01:00N 28°09' W 015°25'2 4.0
2017-Sep-21 00:31N 28°07' W 015°23'4 8.7
2017-Sep-21 00:00N 28°11' W 015°22'713.3
2017-Sep-20 23:31N 28°14' W 015°29'713.9
2017-Sep-20 23:00N 28°16' W 015°37'713.7
2017-Sep-20 22:30N 28°19' W 015°44'713.8
2017-Sep-20 22:00N 28°21' W 015°52'713.8
2017-Sep-20 21:30N 28°23' W 015°59'713.7
2017-Sep-20 21:00N 28°26' W 016°06'611.3
2017-Sep-20 20:28N 28°28' W 016°12'1 0.2
2017-Sep-20 12:18N 28°29' W 016°14'2 4.9
2017-Sep-20 11:51N 28°27' W 016°12'0 1.0
2017-Sep-20 11:30N 28°28' W 016°12'2 2.3
2017-Sep-20 10:35N 28°28' W 016°10'1 5.6
2017-Sep-20 10:28N 28°28' W 016°09'510.3
2017-Sep-20 10:00N 28°31' W 016°05'711.2
2017-Sep-20 09:22N 28°37' W 016°01'812.7
2017-Sep-20 08:46N 28°44' W 015°56'614.4
2017-Sep-20 08:19N 28°50' W 015°53'814.9
2017-Sep-20 07:48N 28°56' W 015°49'415.1
2017-Sep-20 07:30N 29°00' W 015°46'815.7
2017-Sep-20 07:00N 29°07' W 015°42'815.8
2017-Sep-20 06:30N 29°14' W 015°37'815.9
2017-Sep-20 06:00N 29°21' W 015°33'815.9
2017-Sep-20 05:30N 29°28' W 015°29'915.9
2017-Sep-20 04:55N 29°36' W 015°23'815.9
2017-Sep-20 04:25N 29°43' W 015°19'716.0
2017-Sep-20 03:59N 29°49' W 015°15'815.9
2017-Sep-20 03:30N 29°56' W 015°11'815.9
2017-Sep-20 03:00N 30°03' W 015°07'815.9
2017-Sep-20 02:30N 30°10' W 015°02'915.9
2017-Sep-20 01:58N 30°17' W 014°57'716.0
2017-Sep-20 01:30N 30°24' W 014°53'815.8
2017-Sep-20 01:00N 30°31' W 014°49'3615.8
2017-Sep-19 22:44N 31°02' W 014°28'41815.7
2017-Sep-18 20:09N 37°08' W 010°25'716.4
2017-Sep-18 19:44N 37°14' W 010°22'616.6
2017-Sep-18 19:24N 37°19' W 010°18'615.7
2017-Sep-18 19:01N 37°24' W 010°14'1115.2
2017-Sep-18 18:19N 37°33' W 010°08'515.0
2017-Sep-18 18:00N 37°37' W 010°05'714.9
2017-Sep-18 17:30N 37°44' W 010°01'715.0
2017-Sep-18 17:00N 37°50' W 009°56'815.4
2017-Sep-18 16:30N 37°57' W 009°51'815.5
2017-Sep-18 16:00N 38°04' W 009°46'815.3
2017-Sep-18 15:29N 38°11' W 009°41'715.0
2017-Sep-18 15:00N 38°17' W 009°37'815.4
2017-Sep-18 14:30N 38°24' W 009°32'815.5
2017-Sep-18 14:00N 38°31' W 009°28'714.8
2017-Sep-18 13:30N 38°37' W 009°23'612.8
2017-Sep-18 13:01N 38°41' W 009°17'5 9.3
2017-Sep-18 12:30N 38°41' W 009°11'1 1.4
2017-Sep-18 12:00N 38°42' W 009°10'0 0.0
2017-Sep-18 11:30N 38°42' W 009°10'0 0.0
2017-Sep-18 10:54N 38°42' W 009°10'0 0.0
2017-Sep-18 10:24N 38°42' W 009°10'0 0.0
2017-Sep-18 10:00N 38°42' W 009°10'0 0.0
2017-Sep-18 09:24N 38°42' W 009°10'0 0.0
2017-Sep-18 08:54N 38°42' W 009°10'0 0.0
2017-Sep-18 08:30N 38°42' W 009°10'0 0.0
2017-Sep-18 07:57N 38°42' W 009°10'0 0.0
2017-Sep-18 07:18N 38°42' W 009°10'0 0.0
2017-Sep-18 07:00N 38°42' W 009°10'0 0.0
2017-Sep-18 06:13N 38°42' W 009°10'0 0.2
2017-Sep-18 06:00N 38°42' W 009°10'2 4.3
2017-Sep-18 05:30N 38°41' W 009°13'3 6.5
2017-Sep-18 05:00N 38°41' W 009°17'3 6.9
2017-Sep-18 04:30N 38°39' W 009°20'510.5
2017-Sep-18 04:00N 38°37' W 009°26'816.1
2017-Sep-18 03:30N 38°37' W 009°36'713.1
2017-Sep-18 03:00N 38°42' W 009°43'816.4
2017-Sep-18 02:30N 38°50' W 009°44'816.1
2017-Sep-18 02:00N 38°58' W 009°45'815.8
2017-Sep-18 01:30N 39°06' W 009°45'815.6
2017-Sep-18 01:00N 39°13' W 009°45'815.6
2017-Sep-18 00:30N 39°21' W 009°45'816.0
2017-Sep-18 00:00N 39°29' W 009°44'308 7.5
2017-Sep-16 06:53N 43°50' W 006°06'1114.1
2017-Sep-16 06:06N 43°50' W 005°50'714.1
2017-Sep-16 05:38N 43°49' W 005°41'214.6
2017-Sep-16 05:30N 43°49' W 005°38'714.9
2017-Sep-16 05:00N 43°49' W 005°28'714.6
2017-Sep-16 04:30N 43°49' W 005°18'1014.6
2017-Sep-16 03:48N 43°48' W 005°04'1014.5
2017-Sep-16 03:07N 43°47' W 004°50'6014.2
2017-Sep-15 22:55N 43°33' W 003°30'614.0
2017-Sep-15 22:30N 43°31' W 003°23'714.1
2017-Sep-15 22:00N 43°28' W 003°14'612.7
2017-Sep-15 21:30N 43°25' W 003°07'4 8.7
2017-Sep-15 21:01N 43°22' W 003°03'1 1.8
2017-Sep-15 20:30N 43°21' W 003°03'0 0.0
2017-Sep-15 20:00N 43°21' W 003°03'0 0.0
2017-Sep-15 19:30N 43°21' W 003°03'0 0.0
2017-Sep-15 18:58N 43°21' W 003°03'0 0.0
2017-Sep-15 18:25N 43°21' W 003°03'0 0.0
2017-Sep-15 17:58N 43°21' W 003°03'0 0.0
2017-Sep-15 17:28N 43°21' W 003°03'0 0.0
2017-Sep-15 16:58N 43°21' W 003°03'0 0.0
2017-Sep-15 16:28N 43°21' W 003°03'0 0.0
2017-Sep-15 15:58N 43°21' W 003°03'0 0.0
2017-Sep-15 15:28N 43°21' W 003°03'0 0.0
2017-Sep-15 14:58N 43°21' W 003°03'0 0.0
2017-Sep-15 14:28N 43°21' W 003°03'0 0.0
2017-Sep-15 13:58N 43°21' W 003°03'0 0.0
2017-Sep-15 13:28N 43°21' W 003°03'0 0.0
2017-Sep-15 12:58N 43°21' W 003°03'0 0.0
2017-Sep-15 12:28N 43°21' W 003°03'0 0.0
2017-Sep-15 11:58N 43°21' W 003°03'0 0.0
2017-Sep-15 11:28N 43°21' W 003°03'0 0.0
2017-Sep-15 10:58N 43°21' W 003°03'0 0.0
2017-Sep-15 10:28N 43°21' W 003°03'0 0.0
2017-Sep-15 09:58N 43°21' W 003°03'0 0.0
2017-Sep-15 09:28N 43°21' W 003°03'0 0.0
2017-Sep-15 08:58N 43°21' W 003°03'0 0.0
2017-Sep-15 08:28N 43°21' W 003°03'0 0.0
2017-Sep-15 07:58N 43°21' W 003°03'0 0.0
2017-Sep-15 07:25N 43°21' W 003°03'0 0.0
2017-Sep-15 06:58N 43°21' W 003°03'0 0.0
2017-Sep-15 06:28N 43°21' W 003°03'0 0.0
2017-Sep-15 05:58N 43°21' W 003°03'0 0.0
2017-Sep-15 05:28N 43°21' W 003°03'0 0.0
2017-Sep-15 04:58N 43°21' W 003°03'0 0.0
2017-Sep-15 04:28N 43°21' W 003°03'1 1.7
2017-Sep-15 04:00N 43°21' W 003°03'5 9.6
2017-Sep-15 03:30N 43°25' W 003°07'713.3
2017-Sep-15 03:00N 43°29' W 003°15'5 9.1
2017-Sep-15 02:30N 43°31' W 003°20'5 9.1
2017-Sep-15 02:00N 43°33' W 003°26'5 9.6
2017-Sep-15 01:30N 43°35' W 003°32'59 9.7
2017-Sep-14 19:27N 43°45' W 004°52'510.2
2017-Sep-14 18:55N 43°46' W 004°59'510.6
2017-Sep-14 18:28N 43°46' W 005°06'510.5
2017-Sep-14 18:00N 43°47' W 005°13'510.2
2017-Sep-14 17:30N 43°47' W 005°20'5 9.9
2017-Sep-14 17:00N 43°48' W 005°26'510.1
2017-Sep-14 16:29N 43°48' W 005°34'510.3
2017-Sep-14 16:00N 43°49' W 005°40'510.8
2017-Sep-14 15:30N 43°49' W 005°48'810.6
2017-Sep-14 14:47N 43°50' W 005°59'3 9.9
2017-Sep-14 14:30N 43°50' W 006°02'  
2017-Sep-12 06:34N 39°29' W 010°41'110.5
2017-Sep-12 06:27N 39°27' W 010°42'510.6
2017-Sep-12 05:56N 39°22' W 010°43'510.5
2017-Sep-12 05:27N 39°17' W 010°44'7 9.9
2017-Sep-12 04:45N 39°10' W 010°46'310.1
2017-Sep-12 04:28N 39°07' W 010°47'510.1
2017-Sep-12 04:00N 39°03' W 010°48'510.2
2017-Sep-12 03:30N 38°58' W 010°49'5 9.9
2017-Sep-12 03:00N 38°53' W 010°51'5 9.6
2017-Sep-12 02:30N 38°48' W 010°52'5 9.5
2017-Sep-12 01:58N 38°43' W 010°53'4 9.7
2017-Sep-12 01:30N 38°39' W 010°54'5 9.7
2017-Sep-12 01:00N 38°34' W 010°55'5 9.8
2017-Sep-12 00:30N 38°29' W 010°56'510.2
2017-Sep-12 00:00N 38°24' W 010°58'510.4
2017-Sep-11 23:30N 38°19' W 010°59'510.5
2017-Sep-11 23:00N 38°14' W 011°01'510.4
2017-Sep-11 22:30N 38°09' W 011°02'510.1
2017-Sep-11 22:00N 38°04' W 011°03'510.0
2017-Sep-11 21:30N 37°59' W 011°05'5 9.4
2017-Sep-11 21:00N 37°55' W 011°06'5 9.4
2017-Sep-11 20:30N 37°50' W 011°07'5 9.8
2017-Sep-11 20:00N 37°45' W 011°08'710.3
2017-Sep-11 19:21N 37°39' W 011°10'410.4
2017-Sep-11 19:00N 37°35' W 011°11'610.2
2017-Sep-11 18:25N 37°29' W 011°12'410.1
2017-Sep-11 18:00N 37°25' W 011°13'810.4
2017-Sep-11 17:16N 37°17' W 011°15'310.5
2017-Sep-11 17:00N 37°15' W 011°16'2311.4
2017-Sep-11 15:00N 36°52' W 011°22'  
Track history (hours):
 
Tides and Currents Weather Stations Pressure Air Temp Water Temp Dewpoint Dewpoint Depression Visibility Wind Speed Wind Dir Waves Ship Positions

Beatriz B

Last reported at 2017-Sep-21 04:56 UTC. Time now 2017-Sep-21 05:30 UTC.
Position N 28°09' W 015°25'.

Length 158 m; draft 9 m.

Type: Cargo ship. MMSI: 209056000.

Date/timePositionNaut miles runAvg speedWind from/ knotsBaromVisibWave heightAir tempDewpointWater temp
2017-Sep-21 04:56N 28°09' W 015°25'0 0.0
2017-Sep-21 04:29N 28°09' W 015°25'0 0.0
2017-Sep-21 03:59N 28°09' W 015°25'0 0.0
2017-Sep-21 03:29N 28°09' W 015°25'0 0.0
2017-Sep-21 02:59N 28°09' W 015°25'0 0.0
2017-Sep-21 02:29N 28°09' W 015°25'0 0.0
2017-Sep-21 01:59N 28°09' W 015°25'0 0.0
2017-Sep-21 01:29N 28°09' W 015°25'0 0.2
2017-Sep-21 01:00N 28°09' W 015°25'2 4.0
2017-Sep-21 00:31N 28°07' W 015°23'4 8.7
2017-Sep-21 00:00N 28°11' W 015°22'713.3
2017-Sep-20 23:31N 28°14' W 015°29'713.9
2017-Sep-20 23:00N 28°16' W 015°37'713.7
2017-Sep-20 22:30N 28°19' W 015°44'713.8
2017-Sep-20 22:00N 28°21' W 015°52'713.8
2017-Sep-20 21:30N 28°23' W 015°59'713.7
2017-Sep-20 21:00N 28°26' W 016°06'611.3
2017-Sep-20 20:28N 28°28' W 016°12'1 0.2
2017-Sep-20 12:18N 28°29' W 016°14'2 4.9
2017-Sep-20 11:51N 28°27' W 016°12'0 1.0
2017-Sep-20 11:30N 28°28' W 016°12'2 2.3
2017-Sep-20 10:35N 28°28' W 016°10'1 5.6
2017-Sep-20 10:28N 28°28' W 016°09'510.3
2017-Sep-20 10:00N 28°31' W 016°05'711.2
2017-Sep-20 09:22N 28°37' W 016°01'812.7
2017-Sep-20 08:46N 28°44' W 015°56'614.4
2017-Sep-20 08:19N 28°50' W 015°53'814.9
2017-Sep-20 07:48N 28°56' W 015°49'415.1
2017-Sep-20 07:30N 29°00' W 015°46'815.7
2017-Sep-20 07:00N 29°07' W 015°42'815.8
2017-Sep-20 06:30N 29°14' W 015°37'815.9
2017-Sep-20 06:00N 29°21' W 015°33'815.9
2017-Sep-20 05:30N 29°28' W 015°29'915.9
2017-Sep-20 04:55N 29°36' W 015°23'815.9
2017-Sep-20 04:25N 29°43' W 015°19'716.0
2017-Sep-20 03:59N 29°49' W 015°15'815.9
2017-Sep-20 03:30N 29°56' W 015°11'815.9
2017-Sep-20 03:00N 30°03' W 015°07'815.9
2017-Sep-20 02:30N 30°10' W 015°02'915.9
2017-Sep-20 01:58N 30°17' W 014°57'716.0
2017-Sep-20 01:30N 30°24' W 014°53'815.8
2017-Sep-20 01:00N 30°31' W 014°49'3615.8
2017-Sep-19 22:44N 31°02' W 014°28'41815.7
2017-Sep-18 20:09N 37°08' W 010°25'716.4
2017-Sep-18 19:44N 37°14' W 010°22'616.6
2017-Sep-18 19:24N 37°19' W 010°18'615.7
2017-Sep-18 19:01N 37°24' W 010°14'1115.2
2017-Sep-18 18:19N 37°33' W 010°08'515.0
2017-Sep-18 18:00N 37°37' W 010°05'714.9
2017-Sep-18 17:30N 37°44' W 010°01'715.0
2017-Sep-18 17:00N 37°50' W 009°56'815.4
2017-Sep-18 16:30N 37°57' W 009°51'815.5
2017-Sep-18 16:00N 38°04' W 009°46'815.3
2017-Sep-18 15:29N 38°11' W 009°41'715.0
2017-Sep-18 15:00N 38°17' W 009°37'815.4
2017-Sep-18 14:30N 38°24' W 009°32'815.5
2017-Sep-18 14:00N 38°31' W 009°28'714.8
2017-Sep-18 13:30N 38°37' W 009°23'612.8
2017-Sep-18 13:01N 38°41' W 009°17'5 9.3
2017-Sep-18 12:30N 38°41' W 009°11'1 1.4
2017-Sep-18 12:00N 38°42' W 009°10'0 0.0
2017-Sep-18 11:30N 38°42' W 009°10'0 0.0
2017-Sep-18 10:54N 38°42' W 009°10'0 0.0
2017-Sep-18 10:24N 38°42' W 009°10'0 0.0
2017-Sep-18 10:00N 38°42' W 009°10'0 0.0
2017-Sep-18 09:24N 38°42' W 009°10'0 0.0
2017-Sep-18 08:54N 38°42' W 009°10'0 0.0
2017-Sep-18 08:30N 38°42' W 009°10'0 0.0
2017-Sep-18 07:57N 38°42' W 009°10'0 0.0
2017-Sep-18 07:18N 38°42' W 009°10'0 0.0
2017-Sep-18 07:00N 38°42' W 009°10'0 0.0
2017-Sep-18 06:13N 38°42' W 009°10'0 0.2
2017-Sep-18 06:00N 38°42' W 009°10'2 4.3
2017-Sep-18 05:30N 38°41' W 009°13'3 6.5
2017-Sep-18 05:00N 38°41' W 009°17'3 6.9
2017-Sep-18 04:30N 38°39' W 009°20'510.5
2017-Sep-18 04:00N 38°37' W 009°26'816.1
2017-Sep-18 03:30N 38°37' W 009°36'713.1
2017-Sep-18 03:00N 38°42' W 009°43'816.4
2017-Sep-18 02:30N 38°50' W 009°44'816.1
2017-Sep-18 02:00N 38°58' W 009°45'815.8
2017-Sep-18 01:30N 39°06' W 009°45'815.6
2017-Sep-18 01:00N 39°13' W 009°45'815.6
2017-Sep-18 00:30N 39°21' W 009°45'816.0
2017-Sep-18 00:00N 39°29' W 009°44'308 7.5
2017-Sep-16 06:53N 43°50' W 006°06'1114.1
2017-Sep-16 06:06N 43°50' W 005°50'714.1
2017-Sep-16 05:38N 43°49' W 005°41'214.6
2017-Sep-16 05:30N 43°49' W 005°38'714.9
2017-Sep-16 05:00N 43°49' W 005°28'714.6
2017-Sep-16 04:30N 43°49' W 005°18'1014.6
2017-Sep-16 03:48N 43°48' W 005°04'1014.5
2017-Sep-16 03:07N 43°47' W 004°50'6014.2
2017-Sep-15 22:55N 43°33' W 003°30'614.0
2017-Sep-15 22:30N 43°31' W 003°23'714.1
2017-Sep-15 22:00N 43°28' W 003°14'612.7
2017-Sep-15 21:30N 43°25' W 003°07'4 8.7
2017-Sep-15 21:01N 43°22' W 003°03'1 1.8
2017-Sep-15 20:30N 43°21' W 003°03'0 0.0
2017-Sep-15 20:00N 43°21' W 003°03'0 0.0
2017-Sep-15 19:30N 43°21' W 003°03'0 0.0
2017-Sep-15 18:58N 43°21' W 003°03'0 0.0
2017-Sep-15 18:25N 43°21' W 003°03'0 0.0
2017-Sep-15 17:58N 43°21' W 003°03'0 0.0
2017-Sep-15 17:28N 43°21' W 003°03'0 0.0
2017-Sep-15 16:58N 43°21' W 003°03'0 0.0
2017-Sep-15 16:28N 43°21' W 003°03'0 0.0
2017-Sep-15 15:58N 43°21' W 003°03'0 0.0
2017-Sep-15 15:28N 43°21' W 003°03'0 0.0
2017-Sep-15 14:58N 43°21' W 003°03'0 0.0
2017-Sep-15 14:28N 43°21' W 003°03'0 0.0
2017-Sep-15 13:58N 43°21' W 003°03'0 0.0
2017-Sep-15 13:28N 43°21' W 003°03'0 0.0
2017-Sep-15 12:58N 43°21' W 003°03'0 0.0
2017-Sep-15 12:28N 43°21' W 003°03'0 0.0
2017-Sep-15 11:58N 43°21' W 003°03'0 0.0
2017-Sep-15 11:28N 43°21' W 003°03'0 0.0
2017-Sep-15 10:58N 43°21' W 003°03'0 0.0
2017-Sep-15 10:28N 43°21' W 003°03'0 0.0
2017-Sep-15 09:58N 43°21' W 003°03'0 0.0
2017-Sep-15 09:28N 43°21' W 003°03'0 0.0
2017-Sep-15 08:58N 43°21' W 003°03'0 0.0
2017-Sep-15 08:28N 43°21' W 003°03'0 0.0
2017-Sep-15 07:58N 43°21' W 003°03'0 0.0
2017-Sep-15 07:25N 43°21' W 003°03'0 0.0
2017-Sep-15 06:58N 43°21' W 003°03'0 0.0
2017-Sep-15 06:28N 43°21' W 003°03'0 0.0
2017-Sep-15 05:58N 43°21' W 003°03'0 0.0
2017-Sep-15 05:28N 43°21' W 003°03'0 0.0
2017-Sep-15 04:58N 43°21' W 003°03'0 0.0
2017-Sep-15 04:28N 43°21' W 003°03'1 1.7
2017-Sep-15 04:00N 43°21' W 003°03'5 9.6
2017-Sep-15 03:30N 43°25' W 003°07'713.3
2017-Sep-15 03:00N 43°29' W 003°15'5 9.1
2017-Sep-15 02:30N 43°31' W 003°20'5 9.1
2017-Sep-15 02:00N 43°33' W 003°26'5 9.6
2017-Sep-15 01:30N 43°35' W 003°32'59 9.7
2017-Sep-14 19:27N 43°45' W 004°52'510.2
2017-Sep-14 18:55N 43°46' W 004°59'510.6
2017-Sep-14 18:28N 43°46' W 005°06'510.5
2017-Sep-14 18:00N 43°47' W 005°13'510.2
2017-Sep-14 17:30N 43°47' W 005°20'5 9.9
2017-Sep-14 17:00N 43°48' W 005°26'510.1
2017-Sep-14 16:29N 43°48' W 005°34'510.3
2017-Sep-14 16:00N 43°49' W 005°40'510.8
2017-Sep-14 15:30N 43°49' W 005°48'810.6
2017-Sep-14 14:47N 43°50' W 005°59'3 9.9
2017-Sep-14 14:30N 43°50' W 006°02'  
2017-Sep-12 06:34N 39°29' W 010°41'110.5
2017-Sep-12 06:27N 39°27' W 010°42'510.6
2017-Sep-12 05:56N 39°22' W 010°43'510.5
2017-Sep-12 05:27N 39°17' W 010°44'7 9.9
2017-Sep-12 04:45N 39°10' W 010°46'310.1
2017-Sep-12 04:28N 39°07' W 010°47'510.1
2017-Sep-12 04:00N 39°03' W 010°48'510.2
2017-Sep-12 03:30N 38°58' W 010°49'5 9.9
2017-Sep-12 03:00N 38°53' W 010°51'5 9.6
2017-Sep-12 02:30N 38°48' W 010°52'5 9.5
2017-Sep-12 01:58N 38°43' W 010°53'4 9.7
2017-Sep-12 01:30N 38°39' W 010°54'5 9.7
2017-Sep-12 01:00N 38°34' W 010°55'5 9.8
2017-Sep-12 00:30N 38°29' W 010°56'510.2
2017-Sep-12 00:00N 38°24' W 010°58'510.4
2017-Sep-11 23:30N 38°19' W 010°59'510.5
2017-Sep-11 23:00N 38°14' W 011°01'510.4
2017-Sep-11 22:30N 38°09' W 011°02'510.1
2017-Sep-11 22:00N 38°04' W 011°03'510.0
2017-Sep-11 21:30N 37°59' W 011°05'5 9.4
2017-Sep-11 21:00N 37°55' W 011°06'5 9.4
2017-Sep-11 20:30N 37°50' W 011°07'5 9.8
2017-Sep-11 20:00N 37°45' W 011°08'710.3
2017-Sep-11 19:21N 37°39' W 011°10'410.4
2017-Sep-11 19:00N 37°35' W 011°11'610.2
2017-Sep-11 18:25N 37°29' W 011°12'410.1
2017-Sep-11 18:00N 37°25' W 011°13'810.4
2017-Sep-11 17:16N 37°17' W 011°15'310.5
2017-Sep-11 17:00N 37°15' W 011°16'2311.4
2017-Sep-11 15:00N 36°52' W 011°22'  

Dump ship's entire track history